Time;durP1;ratioP1;P1;durP2;ratioP2;P2;SDS_P1;SDS_P2;PMS_P1;PMS_P2;Temp;Humidity;BMP_temperature;BMP_pressure;BME280_temperature;BME280_humidity;BME280_pressure;Samples;Min_cycle;Max_cycle;Signal;HPM_P1;HPM_P2
2021/10/11 00:00:29;;;;;;;12.80;4.50;;;12.40;99.90;;;;;;5109735;28;20039;-54
2021/10/11 00:02:55;;;;;;;9.38;4.10;;;12.30;99.90;;;;;;5091020;28;20056;-55
2021/10/11 00:05:21;;;;;;;9.95;3.65;;;12.20;99.90;;;;;;5106577;28;20052;-55
2021/10/11 00:07:48;;;;;;;11.80;4.25;;;12.20;99.90;;;;;;5106114;28;20466;-56
2021/10/11 00:10:19;;;;;;;14.32;5.00;;;12.10;99.90;;;;;;5106931;28;20488;-55
2021/10/11 00:12:49;;;;;;;13.75;3.97;;;12.00;99.90;;;;;;5111223;28;20063;-56
2021/10/11 00:15:17;;;;;;;14.68;4.32;;;12.00;99.90;;;;;;5091168;28;20075;-56
2021/10/11 00:17:46;;;;;;;13.52;4.40;;;11.90;99.90;;;;;;5108214;28;20060;-56
2021/10/11 00:20:15;;;;;;;16.42;4.75;;;11.80;99.90;;;;;;5108386;28;20082;-56
2021/10/11 00:22:41;;;;;;;14.63;4.35;;;11.70;99.90;;;;;;5110813;28;20452;-56
2021/10/11 00:25:08;;;;;;;19.95;4.45;;;11.70;99.90;;;;;;5086454;28;20880;-53
2021/10/11 00:27:35;;;;;;;12.48;4.18;;;11.60;99.90;;;;;;5108102;28;20059;-56
2021/10/11 00:30:05;;;;;;;14.45;4.03;;;11.60;99.90;;;;;;5107157;28;20083;-55
2021/10/11 00:32:32;;;;;;;18.63;4.50;;;11.50;99.90;;;;;;5090684;28;20043;-56
2021/10/11 00:35:00;;;;;;;12.30;3.72;;;11.50;99.90;;;;;;5110033;28;20465;-55
2021/10/11 00:37:26;;;;;;;14.32;4.13;;;11.40;99.90;;;;;;5092484;28;20062;-56
2021/10/11 00:39:52;;;;;;;12.95;4.05;;;11.40;99.90;;;;;;5089047;28;20055;-56
2021/10/11 00:42:19;;;;;;;16.45;4.20;;;11.40;99.90;;;;;;5091515;28;20059;-56
2021/10/11 00:44:45;;;;;;;14.75;4.00;;;11.40;99.90;;;;;;5095484;28;20056;-55
2021/10/11 00:47:11;;;;;;;15.80;4.55;;;11.40;99.90;;;;;;5091026;28;20140;-57
2021/10/11 00:49:37;;;;;;;13.63;3.70;;;11.30;99.90;;;;;;5110854;28;20054;-55
2021/10/11 00:52:04;;;;;;;9.57;3.08;;;11.30;99.90;;;;;;5108892;28;20055;-56
2021/10/11 00:54:32;;;;;;;11.52;4.70;;;11.30;99.90;;;;;;5109242;28;20047;-55
2021/10/11 00:57:00;;;;;;;14.70;3.70;;;11.20;99.90;;;;;;5107448;28;20161;-56
2021/10/11 00:59:26;;;;;;;13.18;3.95;;;11.30;99.90;;;;;;5109440;28;20819;-56
2021/10/11 01:01:52;;;;;;;11.13;3.67;;;11.30;99.90;;;;;;5108944;28;20056;-54
2021/10/11 01:04:18;;;;;;;15.15;3.53;;;11.30;99.90;;;;;;5109352;28;20086;-56
2021/10/11 01:06:44;;;;;;;12.90;4.22;;;11.40;99.90;;;;;;5109821;28;20134;-56
2021/10/11 01:09:12;;;;;;;12.00;3.20;;;11.30;99.90;;;;;;5108857;28;20059;-56
2021/10/11 01:11:38;;;;;;;13.90;3.22;;;11.20;99.90;;;;;;5105586;28;20437;-58
2021/10/11 01:14:06;;;;;;;11.48;3.25;;;11.20;99.90;;;;;;5110414;28;20092;-56
2021/10/11 01:16:32;;;;;;;13.20;3.13;;;11.10;99.90;;;;;;5107032;28;20449;-56
2021/10/11 01:18:59;;;;;;;15.32;4.05;;;11.10;99.90;;;;;;5091083;28;20505;-57
2021/10/11 01:21:26;;;;;;;13.70;3.38;;;11.10;99.90;;;;;;5109146;28;20044;-57
2021/10/11 01:23:53;;;;;;;11.32;3.30;;;11.00;99.90;;;;;;5107252;28;20152;-57
2021/10/11 01:26:20;;;;;;;12.25;3.53;;;11.00;99.90;;;;;;5100870;28;20779;-57
2021/10/11 01:28:46;;;;;;;13.52;3.08;;;11.00;99.90;;;;;;5088684;28;20552;-57
2021/10/11 01:31:12;;;;;;;13.35;3.40;;;11.00;99.90;;;;;;5099699;28;20048;-55
2021/10/11 01:33:39;;;;;;;15.95;3.95;;;11.00;99.90;;;;;;5106567;28;20123;-56
2021/10/11 01:36:07;;;;;;;10.98;3.35;;;11.00;99.90;;;;;;5108794;28;20055;-55
2021/10/11 01:38:33;;;;;;;15.82;3.20;;;11.00;99.90;;;;;;5100475;28;20063;-57
2021/10/11 01:40:59;;;;;;;15.50;3.78;;;11.00;99.90;;;;;;5092832;28;20533;-58
2021/10/11 01:43:25;;;;;;;11.52;3.30;;;11.00;99.90;;;;;;5107674;28;20052;-57
2021/10/11 01:45:52;;;;;;;9.32;3.03;;;11.00;99.90;;;;;;5107555;28;20107;-57
2021/10/11 01:48:18;;;;;;;12.57;3.55;;;11.00;99.90;;;;;;5107214;28;20056;-57
2021/10/11 01:50:44;;;;;;;13.32;3.30;;;11.00;99.90;;;;;;5109634;28;20101;-57
2021/10/11 01:53:10;;;;;;;13.73;3.17;;;11.00;99.90;;;;;;5108305;28;20151;-57
2021/10/11 01:55:36;;;;;;;13.55;3.70;;;11.00;99.90;;;;;;5105305;28;20054;-57
2021/10/11 01:58:03;;;;;;;15.35;3.47;;;11.00;99.90;;;;;;5105959;28;20051;-57
2021/10/11 02:00:29;;;;;;;13.10;3.97;;;11.00;99.90;;;;;;5106698;28;20043;-57
2021/10/11 02:02:55;;;;;;;14.23;3.90;;;11.00;99.90;;;;;;5104933;28;20090;-57
2021/10/11 02:05:21;;;;;;;12.13;3.22;;;11.00;99.90;;;;;;5104325;28;20050;-57
2021/10/11 02:07:47;;;;;;;10.90;3.10;;;11.00;99.90;;;;;;5106240;28;20048;-57
2021/10/11 02:10:13;;;;;;;14.73;3.20;;;11.00;99.90;;;;;;5106617;28;20055;-56
2021/10/11 02:12:40;;;;;;;10.07;3.45;;;11.00;99.90;;;;;;5106225;28;20182;-57
2021/10/11 02:15:07;;;;;;;12.68;3.00;;;11.00;99.90;;;;;;5105767;28;20052;-56
2021/10/11 02:17:34;;;;;;;10.77;2.78;;;11.00;99.90;;;;;;5101680;28;20044;-57
2021/10/11 02:20:01;;;;;;;15.63;3.10;;;11.00;99.90;;;;;;5104984;28;20060;-56
2021/10/11 02:22:27;;;;;;;12.38;3.63;;;11.00;99.90;;;;;;5103554;28;20059;-55
2021/10/11 02:24:53;;;;;;;11.40;3.35;;;11.00;99.90;;;;;;5105610;28;20051;-57
2021/10/11 02:27:20;;;;;;;14.63;3.80;;;10.90;99.90;;;;;;5086157;28;20090;-57
2021/10/11 02:29:46;;;;;;;10.77;3.00;;;10.90;99.90;;;;;;5106507;28;20063;-55
2021/10/11 02:32:14;;;;;;;20.25;3.30;;;10.90;99.90;;;;;;5107114;28;20063;-56
2021/10/11 02:34:41;;;;;;;12.38;3.70;;;10.90;99.90;;;;;;5105858;28;20055;-56
2021/10/11 02:37:10;;;;;;;19.45;3.63;;;10.90;99.90;;;;;;5104766;28;20104;-56
2021/10/11 02:39:36;;;;;;;16.58;3.08;;;10.90;99.90;;;;;;5103447;28;20071;-55
2021/10/11 02:42:05;;;;;;;16.15;3.13;;;10.80;99.90;;;;;;5088006;28;20419;-56
2021/10/11 02:44:33;;;;;;;13.77;2.90;;;10.80;99.90;;;;;;5106050;28;20047;-56
2021/10/11 02:46:59;;;;;;;12.68;3.40;;;10.70;99.90;;;;;;5084709;28;20433;-57
2021/10/11 02:49:25;;;;;;;14.55;3.47;;;10.60;99.90;;;;;;5088775;28;20051;-57
2021/10/11 02:51:51;;;;;;;8.30;2.85;;;10.60;99.90;;;;;;5106266;28;20123;-57
2021/10/11 02:54:17;;;;;;;14.48;4.03;;;10.50;99.90;;;;;;5086914;28;20575;-55
2021/10/11 02:56:44;;;;;;;13.20;3.10;;;10.50;99.90;;;;;;5105465;28;20043;-55
2021/10/11 02:59:11;;;;;;;10.50;2.67;;;10.50;99.90;;;;;;5106299;28;20040;-56
2021/10/11 03:01:37;;;;;;;17.50;3.40;;;10.40;99.90;;;;;;5107296;28;20047;-56
2021/10/11 03:04:03;;;;;;;10.85;2.85;;;10.30;99.90;;;;;;5105985;28;20056;-56
2021/10/11 03:06:31;;;;;;;10.27;3.17;;;10.30;99.90;;;;;;5107401;28;20192;-57
2021/10/11 03:08:57;;;;;;;12.40;3.45;;;10.20;99.90;;;;;;5106696;28;20094;-56
2021/10/11 03:11:23;;;;;;;17.38;3.42;;;10.20;99.90;;;;;;5105355;28;20135;-57
2021/10/11 03:13:52;;;;;;;15.15;3.35;;;10.10;99.90;;;;;;5107511;28;20284;-57
2021/10/11 03:16:18;;;;;;;14.05;3.80;;;10.10;99.90;;;;;;5104677;28;20052;-57
2021/10/11 03:18:44;;;;;;;9.18;2.88;;;10.00;99.90;;;;;;5101547;28;20056;-57
2021/10/11 03:21:11;;;;;;;16.02;3.28;;;10.00;99.90;;;;;;5105806;28;20163;-57
2021/10/11 03:23:37;;;;;;;10.23;2.65;;;9.90;99.90;;;;;;5104597;28;20437;-57
2021/10/11 03:26:03;;;;;;;14.18;3.08;;;9.90;99.90;;;;;;5105607;28;20044;-57
2021/10/11 03:28:29;;;;;;;11.63;3.08;;;9.90;99.90;;;;;;5106820;28;20126;-57
2021/10/11 03:30:55;;;;;;;15.90;3.47;;;9.80;99.90;;;;;;5085417;28;20058;-57
2021/10/11 03:33:21;;;;;;;15.90;3.67;;;9.80;99.90;;;;;;5105567;28;20416;-57
2021/10/11 03:35:47;;;;;;;10.27;3.00;;;9.80;99.90;;;;;;5106205;28;20051;-57
2021/10/11 03:38:13;;;;;;;17.38;3.63;;;9.80;99.90;;;;;;5088757;28;20067;-57
2021/10/11 03:40:39;;;;;;;12.27;2.90;;;9.80;99.90;;;;;;5085939;28;20572;-57
2021/10/11 03:43:05;;;;;;;10.52;2.80;;;9.90;99.90;;;;;;5099283;28;20136;-57
2021/10/11 03:45:33;;;;;;;12.57;2.90;;;9.90;99.90;;;;;;5086105;28;20140;-57
2021/10/11 03:47:59;;;;;;;13.40;3.28;;;9.90;99.90;;;;;;5064570;28;20067;-57
2021/10/11 03:50:26;;;;;;;12.35;2.83;;;10.00;99.90;;;;;;5085939;28;20043;-57
2021/10/11 03:52:55;;;;;;;13.50;2.88;;;10.00;99.90;;;;;;5106804;28;20148;-57
2021/10/11 03:55:21;;;;;;;14.85;2.92;;;10.00;99.90;;;;;;5105644;28;20048;-55
2021/10/11 03:57:47;;;;;;;16.08;3.25;;;10.10;99.90;;;;;;5105845;28;20055;-57
2021/10/11 04:00:13;;;;;;;12.20;3.35;;;10.20;99.90;;;;;;5066018;28;20074;-56
2021/10/11 04:02:40;;;;;;;14.48;2.85;;;10.20;99.90;;;;;;5109107;28;20163;-58
2021/10/11 04:05:07;;;;;;;11.18;2.78;;;10.20;99.90;;;;;;5091271;28;20649;-57
2021/10/11 04:07:34;;;;;;;13.73;3.35;;;10.20;99.90;;;;;;5108248;28;20102;-57
2021/10/11 04:10:03;;;;;;;12.18;2.30;;;10.20;99.90;;;;;;5110348;28;20563;-57
2021/10/11 04:12:36;;;;;;;15.43;3.25;;;10.20;99.90;;;;;;5108759;28;20468;-57
2021/10/11 04:15:04;;;;;;;11.02;2.72;;;10.30;99.90;;;;;;5108931;28;20130;-57
2021/10/11 04:17:30;;;;;;;17.67;3.05;;;10.30;99.90;;;;;;5108014;28;20067;-58
2021/10/11 04:19:59;;;;;;;11.07;3.03;;;10.30;99.90;;;;;;5110558;28;20097;-57
2021/10/11 04:22:25;;;;;;;12.63;2.67;;;10.30;99.90;;;;;;5106764;28;20440;-58
2021/10/11 04:24:51;;;;;;;10.05;2.70;;;10.30;99.90;;;;;;5103276;28;20142;-57
2021/10/11 04:27:17;;;;;;;11.30;3.00;;;10.30;99.90;;;;;;5101920;28;20654;-57
2021/10/11 04:29:44;;;;;;;14.27;2.63;;;10.40;99.90;;;;;;5105261;28;20522;-58
2021/10/11 04:32:10;;;;;;;13.40;2.47;;;10.30;99.90;;;;;;5107142;28;20051;-57
2021/10/11 04:34:36;;;;;;;15.10;3.17;;;10.30;99.90;;;;;;5107490;28;20054;-58
2021/10/11 04:37:02;;;;;;;16.45;3.17;;;10.20;99.90;;;;;;5109273;28;20078;-58
2021/10/11 04:39:28;;;;;;;16.52;3.25;;;10.20;99.90;;;;;;5104392;28;20100;-58
2021/10/11 04:41:54;;;;;;;14.32;3.58;;;10.20;99.90;;;;;;5108730;28;20047;-58
2021/10/11 04:44:20;;;;;;;13.07;2.78;;;10.20;99.90;;;;;;5108676;28;20063;-58
2021/10/11 04:46:49;;;;;;;14.40;3.85;;;10.20;99.90;;;;;;5106843;28;20040;-57
2021/10/11 04:49:15;;;;;;;13.10;3.42;;;10.20;99.90;;;;;;5109198;28;20418;-58
2021/10/11 04:51:41;;;;;;;13.77;2.97;;;10.20;99.90;;;;;;5091061;28;20104;-57
2021/10/11 04:54:07;;;;;;;12.48;3.17;;;10.20;99.90;;;;;;5090114;28;20159;-59
2021/10/11 04:56:34;;;;;;;11.80;2.90;;;10.20;99.90;;;;;;5109803;28;20051;-58
2021/10/11 04:59:02;;;;;;;8.07;2.60;;;10.20;99.90;;;;;;5090092;28;20054;-58
2021/10/11 05:01:28;;;;;;;9.15;3.20;;;10.20;99.90;;;;;;5109370;28;20051;-52
2021/10/11 05:03:54;;;;;;;14.55;2.72;;;10.30;99.90;;;;;;5110368;28;20059;-53
2021/10/11 05:06:20;;;;;;;14.20;3.17;;;10.30;99.90;;;;;;5105414;28;20743;-53
2021/10/11 05:08:46;;;;;;;12.30;2.45;;;10.30;99.90;;;;;;5104735;28;20143;-55
2021/10/11 05:11:12;;;;;;;11.25;3.15;;;10.30;99.90;;;;;;5088980;28;20048;-58
2021/10/11 05:13:38;;;;;;;10.30;2.85;;;10.20;99.90;;;;;;5096629;28;20756;-60
2021/10/11 05:16:10;;;;;;;11.93;3.25;;;10.20;99.90;;;;;;5108677;28;20050;-60
2021/10/11 05:18:37;;;;;;;13.57;3.10;;;10.20;99.90;;;;;;5106978;28;20109;-60
2021/10/11 05:21:04;;;;;;;13.43;2.83;;;10.20;99.90;;;;;;5109927;28;20051;-60
2021/10/11 05:23:30;;;;;;;17.77;3.10;;;10.30;99.90;;;;;;5107724;28;20048;-59
2021/10/11 05:25:57;;;;;;;18.30;3.42;;;10.20;99.90;;;;;;5108135;28;20051;-59
2021/10/11 05:28:23;;;;;;;19.02;3.22;;;10.30;99.90;;;;;;5109353;28;20062;-58
2021/10/11 05:30:49;;;;;;;12.82;2.35;;;10.30;99.90;;;;;;5102241;28;20040;-59
2021/10/11 05:33:19;;;;;;;12.95;3.30;;;10.20;99.90;;;;;;5103097;28;20066;-60
2021/10/11 05:35:46;;;;;;;38.47;23.25;;;10.30;99.90;;;;;;5090213;28;20441;-56
2021/10/11 05:38:12;;;;;;;24.67;5.80;;;10.20;99.90;;;;;;5092059;28;20127;-58
2021/10/11 05:40:38;;;;;;;33.83;21.08;;;10.30;99.90;;;;;;5089942;28;20126;-62
2021/10/11 05:43:06;;;;;;;13.95;4.63;;;10.30;99.90;;;;;;5103850;28;20503;-60
2021/10/11 05:45:32;;;;;;;18.35;10.57;;;10.30;99.90;;;;;;5089650;28;20044;-58
2021/10/11 05:47:58;;;;;;;8.93;3.08;;;10.20;99.90;;;;;;5108506;28;20067;-59
2021/10/11 05:50:24;;;;;;;22.75;8.60;;;10.20;99.90;;;;;;5100022;28;20772;-60
2021/10/11 05:52:50;;;;;;;14.25;3.55;;;10.10;99.90;;;;;;5108857;28;20055;-58
2021/10/11 05:55:16;;;;;;;12.95;3.55;;;10.10;99.90;;;;;;5108801;28;20070;-58
2021/10/11 05:57:43;;;;;;;14.90;4.03;;;10.00;99.90;;;;;;5108597;28;20048;-57
2021/10/11 06:00:10;;;;;;;11.23;2.72;;;9.90;99.90;;;;;;5108135;28;20047;-58
2021/10/11 06:02:36;;;;;;;11.27;2.92;;;9.90;99.90;;;;;;5090221;28;20055;-59
2021/10/11 06:05:03;;;;;;;14.18;2.80;;;9.80;99.90;;;;;;5107265;28;20059;-60
2021/10/11 06:07:29;;;;;;;13.10;3.10;;;9.80;99.90;;;;;;5101237;28;20055;-58
2021/10/11 06:09:55;;;;;;;13.65;3.03;;;9.70;99.90;;;;;;5101064;28;20054;-58
2021/10/11 06:12:22;;;;;;;15.10;3.00;;;9.70;99.90;;;;;;5100775;28;20052;-61
2021/10/11 06:14:48;;;;;;;13.32;3.42;;;9.60;99.90;;;;;;5104801;28;20078;-58
2021/10/11 06:17:14;;;;;;;12.48;4.18;;;9.60;99.90;;;;;;5104697;28;20047;-60
2021/10/11 06:19:40;;;;;;;12.18;3.42;;;9.60;99.90;;;;;;5104662;28;20108;-59
2021/10/11 06:22:06;;;;;;;15.63;4.15;;;9.60;99.90;;;;;;5105288;28;20055;-60
2021/10/11 06:24:32;;;;;;;13.40;4.28;;;9.60;99.90;;;;;;5107029;28;20099;-59
2021/10/11 06:26:58;;;;;;;13.93;5.82;;;9.60;99.90;;;;;;5107559;28;20051;-59
2021/10/11 06:29:24;;;;;;;17.05;5.18;;;9.60;99.90;;;;;;5106961;28;20039;-61
2021/10/11 06:31:50;;;;;;;18.88;4.78;;;9.60;99.90;;;;;;5107560;28;20063;-57
2021/10/11 06:34:16;;;;;;;11.73;3.40;;;9.60;99.90;;;;;;5107618;28;20079;-59
2021/10/11 06:36:42;;;;;;;15.98;4.78;;;9.70;99.90;;;;;;5106428;28;20184;-61
2021/10/11 06:39:08;;;;;;;14.40;4.20;;;9.70;99.90;;;;;;5103206;28;20047;-59
2021/10/11 06:41:34;;;;;;;15.75;3.33;;;9.80;99.90;;;;;;5106562;28;20047;-59
2021/10/11 06:44:01;;;;;;;12.45;4.13;;;9.80;99.90;;;;;;5088644;28;20102;-59
2021/10/11 06:46:27;;;;;;;14.65;3.83;;;9.90;99.90;;;;;;5106844;28;20058;-59
2021/10/11 06:48:53;;;;;;;12.50;4.18;;;9.90;99.90;;;;;;5106963;28;20571;-58
2021/10/11 06:51:19;;;;;;;16.42;4.63;;;9.90;99.90;;;;;;5088759;28;20754;-58
2021/10/11 06:53:45;;;;;;;11.98;3.35;;;10.00;99.90;;;;;;5107241;28;20251;-59
2021/10/11 06:56:11;;;;;;;14.75;3.55;;;10.00;99.90;;;;;;5107404;28;20052;-61
2021/10/11 06:58:37;;;;;;;11.95;3.53;;;10.10;99.90;;;;;;5104670;28;20048;-59
2021/10/11 07:01:03;;;;;;;17.27;3.70;;;10.10;99.90;;;;;;5106945;28;20420;-58
2021/10/11 07:03:30;;;;;;;11.90;3.50;;;10.20;99.90;;;;;;5088625;28;20052;-63
2021/10/11 07:06:01;;;;;;;23.50;13.70;;;10.20;99.90;;;;;;5106150;28;20054;-61
2021/10/11 07:08:27;;;;;;;19.90;4.82;;;10.30;99.90;;;;;;5107812;28;20051;-59
2021/10/11 07:10:55;;;;;;;11.45;4.35;;;10.40;99.90;;;;;;5107520;28;20491;-60
2021/10/11 07:13:23;;;;;;;13.50;3.50;;;10.40;99.90;;;;;;5106395;28;20043;-60
2021/10/11 07:15:50;;;;;;;13.82;3.45;;;10.40;99.90;;;;;;5106671;28;20509;-60
2021/10/11 07:18:16;;;;;;;14.85;6.43;;;10.50;99.90;;;;;;5106511;28;20047;-59
2021/10/11 07:20:44;;;;;;;14.82;4.65;;;10.50;99.90;;;;;;5107423;28;20615;-58
2021/10/11 07:23:12;;;;;;;13.43;3.22;;;10.60;99.90;;;;;;5106667;28;20510;-58
2021/10/11 07:25:39;;;;;;;16.85;3.97;;;10.60;99.90;;;;;;5106950;28;20066;-59
2021/10/11 07:28:06;;;;;;;16.52;3.50;;;10.60;99.90;;;;;;5106533;28;20048;-59
2021/10/11 07:30:32;;;;;;;17.60;4.93;;;10.80;99.90;;;;;;5106813;28;20047;-58
2021/10/11 07:32:59;;;;;;;216.68;193.15;;;10.80;99.90;;;;;;5107996;28;20051;-59
2021/10/11 07:35:25;;;;;;;15.20;5.88;;;10.90;99.90;;;;;;5089149;28;20079;-58
2021/10/11 07:37:51;;;;;;;28.15;14.20;;;11.00;99.90;;;;;;5111070;28;20083;-60
2021/10/11 07:40:18;;;;;;;13.90;5.07;;;11.10;99.90;;;;;;5111555;28;20491;-58
2021/10/11 07:42:44;;;;;;;13.48;4.15;;;11.20;99.90;;;;;;5112201;28;20039;-60
2021/10/11 07:45:10;;;;;;;21.65;10.05;;;11.30;99.90;;;;;;5111071;28;20066;-58
2021/10/11 07:47:36;;;;;;;15.18;4.55;;;11.60;99.90;;;;;;5096690;28;20048;-58
2021/10/11 07:50:03;;;;;;;11.45;4.47;;;11.70;99.90;;;;;;5111833;28;20483;-58
2021/10/11 07:52:29;;;;;;;15.32;8.30;;;11.90;99.90;;;;;;5112354;28;20058;-55
2021/10/11 07:54:58;;;;;;;12.25;3.72;;;12.00;99.90;;;;;;5112228;28;20139;-60
2021/10/11 07:57:24;;;;;;;11.65;2.90;;;12.10;99.90;;;;;;5111772;28;20048;-58
2021/10/11 07:59:50;;;;;;;11.00;3.63;;;12.20;99.90;;;;;;5112726;28;20048;-58
2021/10/11 08:02:16;;;;;;;28.85;17.58;;;12.30;99.90;;;;;;5112518;28;20059;-65
2021/10/11 08:04:46;;;;;;;27.23;17.35;;;12.40;99.90;;;;;;5112196;28;20139;-58
2021/10/11 08:07:13;;;;;;;13.98;2.45;;;12.50;99.90;;;;;;5106980;28;20106;-50
2021/10/11 08:09:39;;;;;;;13.50;2.92;;;12.50;99.90;;;;;;5111464;28;20107;-50
2021/10/11 08:12:08;;;;;;;12.43;3.25;;;12.50;99.90;;;;;;5111618;28;20118;-49
2021/10/11 08:14:35;;;;;;;19.58;8.40;;;12.40;99.90;;;;;;5111763;28;20146;-50
2021/10/11 08:17:01;;;;;;;23.13;16.90;;;12.50;99.90;;;;;;5111812;28;20064;-56
2021/10/11 08:19:27;;;;;;;14.10;4.47;;;12.50;99.90;;;;;;5111349;28;20058;-50
2021/10/11 08:21:54;;;;;;;9.93;2.70;;;12.50;99.90;;;;;;5111236;28;20134;-51
2021/10/11 08:24:20;;;;;;;11.63;3.25;;;12.40;99.90;;;;;;5111280;28;20050;-52
2021/10/11 08:26:46;;;;;;;13.95;3.40;;;12.40;99.90;;;;;;5092844;28;20104;-49
2021/10/11 08:29:12;;;;;;;10.63;2.78;;;12.40;99.90;;;;;;5110923;28;20109;-53
2021/10/11 08:31:38;;;;;;;20.38;7.32;;;12.40;99.90;;;;;;5109029;28;20055;-51
2021/10/11 08:34:05;;;;;;;14.18;2.92;;;12.40;99.90;;;;;;5109613;28;20120;-50
2021/10/11 08:36:31;;;;;;;10.43;3.40;;;12.50;99.90;;;;;;5105362;28;20054;-52
2021/10/11 08:38:57;;;;;;;10.40;2.58;;;12.60;99.90;;;;;;5109322;28;20516;-49
2021/10/11 08:41:24;;;;;;;11.15;3.08;;;12.70;99.90;;;;;;5108797;28;20428;-51
2021/10/11 08:43:50;;;;;;;12.18;2.40;;;12.80;99.90;;;;;;5108616;28;20055;-51
2021/10/11 08:46:17;;;;;;;15.00;3.40;;;12.90;99.90;;;;;;5108433;28;20535;-53
2021/10/11 08:48:43;;;;;;;12.10;2.90;;;12.90;99.90;;;;;;5109733;28;20073;-52
2021/10/11 08:51:09;;;;;;;14.35;4.57;;;12.90;99.90;;;;;;5110034;28;20031;-49
2021/10/11 08:53:37;;;;;;;12.30;2.95;;;12.90;99.90;;;;;;5108409;28;20086;-50
2021/10/11 08:56:04;;;;;;;12.40;2.88;;;13.00;99.90;;;;;;5110001;28;20515;-51
2021/10/11 08:58:44;;;;;;;15.40;3.72;;;13.00;99.90;;;;;;5110125;28;20518;-51
2021/10/11 09:01:11;;;;;;;16.30;2.75;;;13.10;99.90;;;;;;5110255;28;20075;-49
2021/10/11 09:03:40;;;;;;;17.67;5.10;;;13.20;99.90;;;;;;5108739;28;20511;-49
2021/10/11 09:06:08;;;;;;;11.82;2.38;;;13.30;99.90;;;;;;5109683;28;20052;-48
2021/10/11 09:08:35;;;;;;;14.63;3.30;;;13.40;99.90;;;;;;5098446;28;20405;-49
2021/10/11 09:11:13;;;;;;;18.77;4.05;;;13.50;99.90;;;;;;5107293;28;20430;-54
2021/10/11 09:13:45;;;;;;;16.00;4.20;;;13.70;99.90;;;;;;5110181;28;20055;-50
2021/10/11 09:18:55;;;;;;;10.93;3.20;;;14.50;99.90;;;;;;5103733;28;20126;-62
2021/10/11 09:21:32;;;;;;;14.77;3.38;;;14.90;99.90;;;;;;5090979;28;20426;-62
2021/10/11 09:24:24;;;;;;;13.98;2.75;;;15.50;99.90;;;;;;5110078;28;20097;-62
2021/10/11 09:27:01;;;;;;;15.82;3.20;;;16.00;99.90;;;;;;5108642;28;20047;-63
2021/10/11 09:29:33;;;;;;;10.32;2.10;;;16.60;99.90;;;;;;5081263;28;20056;-62
2021/10/11 09:32:00;;;;;;;;;;;17.60;99.90;;;;;;5101677;28;20983;-61
2021/10/11 09:34:31;;;;;;;11.30;2.22;;;17.60;99.90;;;;;;5110015;28;20388;-60
2021/10/11 09:37:01;;;;;;;12.43;2.35;;;17.70;99.90;;;;;;5109344;28;20062;-62
2021/10/11 09:39:29;;;;;;;9.10;2.30;;;17.50;99.90;;;;;;5101195;28;20044;-60
2021/10/11 09:41:56;;;;;;;11.27;2.45;;;17.80;99.90;;;;;;5109170;28;20060;-60
2021/10/11 09:44:23;;;;;;;12.88;2.65;;;18.00;99.90;;;;;;5103896;28;20143;-60
2021/10/11 09:46:57;;;;;;;10.77;2.42;;;18.00;99.90;;;;;;5108329;28;20132;-59
2021/10/11 09:49:28;;;;;;;6.82;1.95;;;17.70;99.90;;;;;;5107675;28;20075;-59
2021/10/11 09:51:55;;;;;;;8.00;1.98;;;17.30;99.90;;;;;;5107979;28;20472;-60
2021/10/11 09:54:22;;;;;;;11.95;2.70;;;16.90;99.90;;;;;;5105629;28;20056;-60
2021/10/11 09:56:49;;;;;;;11.32;2.40;;;16.50;99.90;;;;;;5106857;28;20047;-59
2021/10/11 09:59:19;;;;;;;10.32;2.05;;;16.60;99.90;;;;;;5088717;28;20051;-59
2021/10/11 10:01:47;;;;;;;11.13;2.10;;;16.30;99.90;;;;;;5108264;28;20083;-59
2021/10/11 10:04:16;;;;;;;28.88;21.90;;;15.90;99.90;;;;;;5107609;28;20332;-59
2021/10/11 10:06:47;;;;;;;9.68;2.13;;;16.00;99.90;;;;;;5104162;28;20094;-59
2021/10/11 10:09:16;;;;;;;8.75;2.45;;;16.00;99.90;;;;;;5104045;28;20060;-59
2021/10/11 10:11:43;;;;;;;9.02;2.45;;;16.00;99.90;;;;;;5105699;28;20756;-59
2021/10/11 10:14:22;;;;;;;10.00;2.13;;;16.00;99.90;;;;;;5107650;28;20447;-58
2021/10/11 10:16:50;;;;;;;11.82;3.25;;;16.20;99.90;;;;;;5105724;28;20082;-58
2021/10/11 10:19:16;;;;;;;8.68;2.10;;;16.60;99.90;;;;;;5102831;28;20108;-58
2021/10/11 10:21:45;;;;;;;8.85;2.33;;;16.70;99.90;;;;;;5107593;28;20172;-58
2021/10/11 10:24:23;;;;;;;10.55;2.17;;;17.10;99.90;;;;;;5107999;28;20048;-59
2021/10/11 10:27:04;;;;;;;8.10;2.25;;;17.70;99.90;;;;;;5086488;28;20054;-59
2021/10/11 10:29:44;;;;;;;5.83;1.73;;;18.10;99.90;;;;;;5107614;28;20051;-59
2021/10/11 10:32:17;;;;;;;10.73;3.25;;;18.50;99.90;;;;;;5108247;28;20090;-58
2021/10/11 10:34:58;;;;;;;9.95;1.67;;;19.10;99.90;;;;;;5107458;28;20399;-59
2021/10/11 10:37:37;;;;;;;10.95;2.50;;;19.50;99.90;;;;;;5107556;28;20047;-59
2021/10/11 10:40:14;;;;;;;8.43;2.67;;;20.10;95.70;;;;;;5106241;28;20058;-59
2021/10/11 10:42:41;;;;;;;8.68;1.50;;;20.10;99.90;;;;;;5105655;28;20075;-58
2021/10/11 10:45:16;;;;;;;9.25;1.90;;;19.90;99.00;;;;;;5106185;28;20397;-58
2021/10/11 10:47:42;;;;;;;9.82;1.60;;;19.30;95.60;;;;;;5105606;28;20139;-57
2021/10/11 10:50:13;;;;;;;8.23;1.73;;;19.00;99.90;;;;;;5088497;28;20052;-58
2021/10/11 10:52:39;;;;;;;10.57;1.77;;;18.90;99.90;;;;;;5106826;28;20056;-57
2021/10/11 10:55:10;;;;;;;6.43;1.20;;;18.20;99.90;;;;;;5104951;28;20504;-58
2021/10/11 10:57:37;;;;;;;6.72;1.23;;;18.00;99.90;;;;;;5107052;28;20179;-57
2021/10/11 11:00:13;;;;;;;8.13;2.05;;;17.60;99.90;;;;;;5105341;28;20128;-57
2021/10/11 11:02:51;;;;;;;8.65;2.53;;;17.20;99.90;;;;;;5107364;28;20154;-58
2021/10/11 11:05:19;;;;;;;7.65;1.40;;;16.50;99.90;;;;;;5107297;28;20052;-57
2021/10/11 11:07:52;;;;;;;4.68;1.10;;;15.60;99.90;;;;;;5106447;28;20067;-57
2021/10/11 11:10:24;;;;;;;5.40;1.30;;;15.00;99.90;;;;;;5102342;28;20048;-57
2021/10/11 11:12:55;;;;;;;6.07;1.10;;;14.70;99.90;;;;;;5110754;28;20601;-56
2021/10/11 11:15:33;;;;;;;11.45;1.42;;;14.50;99.90;;;;;;5110461;28;20047;-57
2021/10/11 11:18:10;;;;;;;5.65;1.58;;;14.40;99.90;;;;;;5109060;28;20048;-55
2021/10/11 11:20:41;;;;;;;9.13;1.50;;;14.40;99.90;;;;;;5111253;28;20056;-57
2021/10/11 11:23:16;;;;;;;9.93;1.90;;;14.50;99.90;;;;;;5111881;28;20769;-57
2021/10/11 11:25:44;;;;;;;6.13;1.70;;;14.50;99.90;;;;;;5105309;28;20059;-57
2021/10/11 11:28:13;;;;;;;9.57;1.35;;;14.70;99.90;;;;;;5107478;28;20724;-59
2021/10/11 11:30:40;;;;;;;8.23;1.20;;;14.80;99.90;;;;;;5111016;28;20821;-59
2021/10/11 11:33:11;;;;;;;8.98;1.23;;;14.90;99.90;;;;;;5112092;28;20058;-58
2021/10/11 11:36:00;;;;;;;8.07;1.48;;;15.10;99.90;;;;;;5106341;28;20059;-59
2021/10/11 11:38:28;;;;;;;9.15;1.63;;;15.20;99.90;;;;;;5100538;28;20474;-57
2021/10/11 11:40:57;;;;;;;6.93;1.63;;;15.50;99.90;;;;;;5112083;28;20461;-59
2021/10/11 11:43:26;;;;;;;7.15;1.73;;;15.70;99.90;;;;;;5077241;28;20534;-59
2021/10/11 11:45:55;;;;;;;9.05;1.70;;;16.40;99.90;;;;;;5112389;28;20051;-59
2021/10/11 11:48:28;;;;;;;7.57;1.27;;;16.90;99.90;;;;;;5112268;28;20052;-58
2021/10/11 11:51:01;;;;;;;11.38;1.67;;;17.70;99.90;;;;;;5092930;28;20445;-59
2021/10/11 11:53:28;;;;;;;10.85;1.88;;;18.80;99.90;;;;;;5110944;28;20086;-60
2021/10/11 11:55:59;;;;;;;7.45;1.50;;;19.70;99.90;;;;;;5112234;28;20550;-60
2021/10/11 11:58:25;;;;;;;10.13;1.88;;;20.50;99.90;;;;;;5111137;28;20500;-59
2021/10/11 12:00:54;;;;;;;10.82;2.33;;;21.30;96.20;;;;;;5109950;28;20526;-61
2021/10/11 12:03:23;;;;;;;7.60;1.65;;;21.00;95.20;;;;;;5111161;28;20064;-59
2021/10/11 12:05:55;;;;;;;8.68;1.35;;;21.00;92.70;;;;;;5110838;28;20058;-59
2021/10/11 12:08:24;;;;;;;6.68;1.88;;;21.50;91.60;;;;;;5110660;28;20056;-59
2021/10/11 12:11:01;;;;;;;8.65;1.77;;;21.30;90.00;;;;;;5111351;28;20113;-61
2021/10/11 12:13:38;;;;;;;8.60;1.95;;;19.80;87.40;;;;;;5111274;28;20051;-59
2021/10/11 12:16:06;;;;;;;6.13;1.30;;;18.60;99.90;;;;;;5111517;28;20068;-57
2021/10/11 12:18:47;;;;;;;7.30;1.60;;;17.10;99.90;;;;;;5109934;28;20047;-59
2021/10/11 12:21:40;;;;;;;6.68;1.63;;;16.20;99.90;;;;;;5110392;28;20055;-58
2021/10/11 12:24:12;;;;;;;6.28;2.95;;;15.80;99.90;;;;;;5110582;28;20092;-57
2021/10/11 12:26:46;;;;;;;19.63;13.40;;;15.60;99.90;;;;;;5110994;28;20228;-59
2021/10/11 12:29:13;;;;;;;8.13;3.20;;;15.50;99.90;;;;;;5110525;28;20086;-59
2021/10/11 12:31:39;;;;;;;9.50;3.05;;;15.60;99.90;;;;;;5110194;28;20039;-58
2021/10/11 12:34:13;;;;;;;7.38;1.70;;;15.60;99.90;;;;;;5109775;28;20139;-59
2021/10/11 12:36:54;;;;;;;8.15;1.75;;;15.70;99.90;;;;;;5110826;28;20074;-57
2021/10/11 12:39:29;;;;;;;5.88;1.83;;;15.90;99.90;;;;;;5111503;28;20066;-57
2021/10/11 12:41:55;;;;;;;7.82;1.70;;;16.00;99.90;;;;;;5111073;28;20051;-56
2021/10/11 12:44:39;;;;;;;6.43;1.45;;;17.00;99.90;;;;;;5091899;28;20108;-57
2021/10/11 12:47:05;;;;;;;6.70;2.05;;;18.60;99.90;;;;;;5092241;28;20055;-58